Time;durP1;ratioP1;P1;durP2;ratioP2;P2;SDS_P1;SDS_P2;PMS_P1;PMS_P2;Temp;Humidity;BMP_temperature;BMP_pressure;BME280_temperature;BME280_humidity;BME280_pressure;Samples;Min_cycle;Max_cycle;Signal;HPM_P1;HPM_P2
2023/12/17 00:01:13;;;;;;;49.55;25.65;;;;;;;2.76;72.09;102075.91;5050239;28;20151;-78
2023/12/17 00:03:38;;;;;;;48.90;26.47;;;;;;;2.73;71.60;102084.41;5050509;28;20033;-81
2023/12/17 00:06:04;;;;;;;57.17;29.58;;;;;;;2.72;71.75;102077.41;5049963;28;20028;-79
2023/12/17 00:08:29;;;;;;;54.37;26.63;;;;;;;2.72;71.84;102082.63;5050012;28;20617;-80
2023/12/17 00:10:55;;;;;;;56.80;27.20;;;;;;;2.70;72.21;102092.03;5049610;28;20021;-79
2023/12/17 00:13:20;;;;;;;53.67;28.23;;;;;;;2.68;71.92;102091.06;5049288;28;20029;-78
2023/12/17 00:15:46;;;;;;;54.30;27.92;;;;;;;2.65;72.15;102090.91;5062697;28;20025;-78
2023/12/17 00:18:12;;;;;;;52.67;26.60;;;;;;;2.63;72.00;102092.50;5049720;28;20041;-79
2023/12/17 00:20:38;;;;;;;53.33;26.53;;;;;;;2.61;72.28;102094.13;5048936;28;20586;-78
2023/12/17 00:23:04;;;;;;;49.83;25.65;;;;;;;2.58;71.82;102090.53;5050157;28;20036;-78
2023/12/17 00:25:30;;;;;;;46.60;24.60;;;;;;;2.56;71.83;102088.66;5049731;28;20040;-77
2023/12/17 00:27:55;;;;;;;48.93;24.47;;;;;;;2.52;72.14;102084.97;5050947;28;20029;-78
2023/12/17 00:30:21;;;;;;;43.53;22.67;;;;;;;2.49;72.08;102083.91;5050758;28;20025;-78
2023/12/17 00:32:47;;;;;;;43.10;21.37;;;;;;;2.48;72.48;102077.78;5050859;28;20033;-78
2023/12/17 00:35:12;;;;;;;43.97;23.60;;;;;;;2.48;72.69;102083.00;5049363;28;20041;-78
2023/12/17 00:37:38;;;;;;;50.50;24.57;;;;;;;2.48;72.01;102083.00;5050931;28;20280;-78
2023/12/17 00:40:04;;;;;;;41.57;22.50;;;;;;;2.47;72.30;102076.00;5050043;28;20128;-78
2023/12/17 00:42:29;;;;;;;46.17;23.33;;;;;;;2.43;72.34;102074.03;5050478;28;20100;-78
2023/12/17 00:44:54;;;;;;;37.33;19.87;;;;;;;2.41;72.20;102075.66;5049411;28;20485;-78
2023/12/17 00:47:20;;;;;;;42.03;20.93;;;;;;;2.42;72.47;102074.84;5050783;28;20024;-78
2023/12/17 00:49:45;;;;;;;36.80;17.13;;;;;;;2.42;72.39;102077.44;5050199;28;20558;-77
2023/12/17 00:52:10;;;;;;;30.70;16.83;;;;;;;2.42;72.17;102080.03;5050697;28;20029;-80
2023/12/17 00:54:36;;;;;;;27.27;14.03;;;;;;;2.41;72.93;102078.25;5050461;28;20299;-78
2023/12/17 00:57:01;;;;;;;29.87;15.53;;;;;;;2.38;72.95;102075.47;5050257;28;20086;-78
2023/12/17 00:59:26;;;;;;;32.23;15.47;;;;;;;2.35;73.34;102080.50;5049769;28;20053;-79
2023/12/17 01:01:55;;;;;;;30.40;14.07;;;;;;;2.34;72.78;102078.72;5048865;28;20033;-78
2023/12/17 01:04:21;;;;;;;25.30;13.25;;;;;;;2.34;72.62;102078.72;5050183;28;20039;-78
2023/12/17 01:06:46;;;;;;;26.10;14.03;;;;;;;2.33;72.84;102076.91;5050253;28;20036;-81
2023/12/17 01:09:11;;;;;;;28.80;15.13;;;;;;;2.32;73.01;102077.72;5050037;28;20025;-79
2023/12/17 01:11:37;;;;;;;31.43;15.80;;;;;;;2.28;72.69;102089.63;5049932;28;20311;-79
2023/12/17 01:14:02;;;;;;;29.23;15.40;;;;;;;2.24;73.07;102080.75;5049326;28;20044;-78
2023/12/17 01:16:30;;;;;;;28.05;14.15;;;;;;;2.25;73.01;102077.34;5049784;28;20033;-79
2023/12/17 01:18:55;;;;;;;28.53;14.67;;;;;;;2.24;72.96;102072.94;5049873;28;20068;-79
2023/12/17 01:21:20;;;;;;;33.60;15.52;;;;;;;2.22;72.60;102071.06;5049924;28;20100;-79
2023/12/17 01:23:46;;;;;;;32.07;16.10;;;;;;;2.19;72.25;102074.38;5049645;28;20128;-77
2023/12/17 01:26:23;;;;;;;26.33;14.33;;;;;;;2.17;72.56;102070.78;5049795;28;20102;-78
2023/12/17 01:28:49;;;;;;;27.08;14.55;;;;;;;2.14;72.49;102066.28;5049827;28;20033;-78
2023/12/17 01:31:14;;;;;;;28.33;14.13;;;;;;;2.14;72.46;102065.41;5049892;28;20035;-80
2023/12/17 01:33:40;;;;;;;24.67;13.50;;;;;;;2.12;72.34;102072.22;5049769;28;20025;-77
2023/12/17 01:36:05;;;;;;;25.13;13.63;;;;;;;2.11;72.54;102062.63;5049452;28;20048;-78
2023/12/17 01:38:31;;;;;;;24.98;12.40;;;;;;;2.11;72.42;102070.44;5049466;28;20520;-77
2023/12/17 01:40:56;;;;;;;25.53;13.97;;;;;;;2.11;72.97;102073.03;5049769;28;20060;-78
2023/12/17 01:43:21;;;;;;;31.30;15.80;;;;;;;2.09;72.96;102077.25;5049510;28;20047;-78
2023/12/17 01:45:47;;;;;;;26.77;13.67;;;;;;;2.03;72.83;102072.56;5049630;28;20517;-77
2023/12/17 01:48:13;;;;;;;26.20;12.30;;;;;;;2.01;73.15;102069.88;5049776;28;20021;-78
2023/12/17 01:50:38;;;;;;;27.23;12.50;;;;;;;1.99;73.09;102063.69;5048945;28;20396;-78
2023/12/17 01:53:04;;;;;;;25.63;12.13;;;;;;;1.98;73.11;102067.09;5049329;28;20078;-77
2023/12/17 01:55:30;;;;;;;26.15;12.60;;;;;;;1.97;73.62;102065.28;5049095;28;20024;-78
2023/12/17 01:57:56;;;;;;;27.42;12.82;;;;;;;1.99;73.59;102071.47;5049079;28;20486;-79
2023/12/17 02:00:23;;;;;;;24.40;12.70;;;;;;;1.99;73.43;102058.47;5049342;28;20033;-77
2023/12/17 02:02:49;;;;;;;25.40;12.63;;;;;;;2.02;73.57;102055.19;5049382;28;20029;-77
2023/12/17 02:05:15;;;;;;;28.93;13.90;;;;;;;2.03;72.99;102058.66;5049462;28;20094;-78
2023/12/17 02:07:41;;;;;;;31.88;15.40;;;;;;;1.99;72.99;102075.78;5049292;28;20031;-77
2023/12/17 02:10:07;;;;;;;35.83;16.43;;;;;;;1.95;73.62;102063.44;5051249;28;20112;-77
2023/12/17 02:12:32;;;;;;;36.15;15.55;;;;;;;1.93;73.41;102055.53;5049563;28;20156;-77
2023/12/17 02:14:58;;;;;;;46.40;17.63;;;;;;;1.92;73.49;102053.75;5049172;28;20029;-77
2023/12/17 02:17:28;;;;;;;45.72;18.20;;;;;;;1.93;73.35;102050.34;5049158;28;20477;-78
2023/12/17 02:19:53;;;;;;;42.77;16.43;;;;;;;1.93;74.37;102050.34;5049248;28;20029;-78
2023/12/17 02:22:21;;;;;;;35.58;15.70;;;;;;;1.95;74.10;102053.91;5049269;28;20033;-78
2023/12/17 02:24:47;;;;;;;46.42;15.95;;;;;;;1.97;73.54;102057.50;5052161;28;20102;-77
2023/12/17 02:27:27;;;;;;;38.50;16.53;;;;;;;1.95;74.11;102033.13;5049188;28;20081;-78
2023/12/17 02:29:54;;;;;;;46.35;16.13;;;;;;;1.93;74.34;102039.94;5049381;28;20029;-78
2023/12/17 02:32:21;;;;;;;49.93;16.83;;;;;;;1.91;74.38;102044.16;5048960;28;20507;-79
2023/12/17 02:34:47;;;;;;;41.80;14.88;;;;;;;1.91;73.79;102049.34;5049163;28;20025;-77
2023/12/17 02:37:13;;;;;;;31.15;14.55;;;;;;;1.93;74.41;102039.94;5049210;28;20405;-78
2023/12/17 02:39:39;;;;;;;57.03;15.90;;;;;;;1.94;74.70;102030.47;5048986;28;20033;-77
2023/12/17 02:42:04;;;;;;;46.47;15.57;;;;;;;1.92;73.84;102027.75;5049270;28;20025;-76
2023/12/17 02:44:30;;;;;;;42.28;14.65;;;;;;;1.91;73.89;102019.84;5049071;28;20040;-77
2023/12/17 02:46:55;;;;;;;40.07;15.07;;;;;;;1.89;74.17;102014.59;5049368;28;20048;-77
2023/12/17 02:49:21;;;;;;;33.43;15.57;;;;;;;1.86;73.64;102012.69;5048962;28;20061;-77
2023/12/17 02:51:46;;;;;;;37.75;14.80;;;;;;;1.84;73.54;102013.41;5049106;28;20056;-78
2023/12/17 02:54:12;;;;;;;35.13;14.73;;;;;;;1.76;74.23;102010.34;5049141;28;20069;-79
2023/12/17 02:56:38;;;;;;;29.40;14.80;;;;;;;1.68;74.34;102007.28;5048920;28;20074;-78
2023/12/17 02:59:08;;;;;;;31.70;13.38;;;;;;;1.67;74.44;102015.88;5048889;28;20078;-77
2023/12/17 03:01:34;;;;;;;29.67;13.85;;;;;;;1.66;74.54;102013.19;5048886;28;20060;-78
2023/12/17 03:03:59;;;;;;;29.20;13.77;;;;;;;1.67;74.30;102005.50;5049063;28;20072;-77
2023/12/17 03:06:25;;;;;;;29.50;13.67;;;;;;;1.67;74.37;101997.72;5049055;28;20028;-77
2023/12/17 03:08:50;;;;;;;29.35;13.32;;;;;;;1.69;74.14;101993.50;5050409;28;20009;-77
2023/12/17 03:11:16;;;;;;;34.47;13.23;;;;;;;1.69;74.54;101988.31;5052691;28;20654;-78
2023/12/17 03:13:41;;;;;;;30.53;13.73;;;;;;;1.64;74.28;101992.34;5052168;28;20489;-78
2023/12/17 03:16:08;;;;;;;29.87;11.77;;;;;;;1.61;74.75;101984.38;5052549;28;20009;-78
2023/12/17 03:18:34;;;;;;;34.40;12.43;;;;;;;1.56;74.18;101989.28;5052658;28;20036;-77
2023/12/17 03:21:00;;;;;;;29.20;12.43;;;;;;;1.51;75.18;101989.78;5052311;28;20452;-77
2023/12/17 03:23:25;;;;;;;33.00;12.60;;;;;;;1.46;75.08;101981.75;5052373;28;20548;-77
2023/12/17 03:25:50;;;;;;;30.30;12.57;;;;;;;1.44;74.89;101983.31;5051186;28;20524;-78
2023/12/17 03:28:16;;;;;;;38.27;12.17;;;;;;;1.40;74.91;101977.06;5051885;28;20028;-77
2023/12/17 03:30:41;;;;;;;33.13;12.43;;;;;;;1.35;75.69;101973.28;5052343;28;20339;-77
2023/12/17 03:33:09;;;;;;;31.73;12.47;;;;;;;1.32;75.64;101979.97;5052018;28;20025;-79
2023/12/17 03:35:34;;;;;;;33.63;13.38;;;;;;;1.28;75.57;101977.19;5051976;28;20025;-77
2023/12/17 03:37:59;;;;;;;34.00;12.87;;;;;;;1.23;75.55;101970.84;5052131;28;20424;-78
2023/12/17 03:40:25;;;;;;;38.13;13.60;;;;;;;1.21;75.65;101967.25;5052019;28;20520;-79
2023/12/17 03:42:50;;;;;;;29.67;12.00;;;;;;;1.18;75.86;101972.22;5052023;28;20501;-77
2023/12/17 03:45:15;;;;;;;31.20;11.73;;;;;;;1.18;76.27;101966.16;5051691;28;20036;-79
2023/12/17 03:47:45;;;;;;;25.17;11.57;;;;;;;1.20;75.51;101964.56;5051322;28;20413;-78
2023/12/17 03:50:11;;;;;;;29.08;11.35;;;;;;;1.22;75.37;101958.66;5051413;28;20021;-79
2023/12/17 03:52:36;;;;;;;27.47;11.00;;;;;;;1.25;75.64;101957.94;5051317;28;20040;-78
2023/12/17 03:55:02;;;;;;;26.13;11.03;;;;;;;1.30;75.41;101953.91;5050827;28;20514;-78
2023/12/17 03:57:27;;;;;;;21.17;10.03;;;;;;;1.35;75.49;101949.94;5050963;28;20025;-78
2023/12/17 03:59:52;;;;;;;21.60;9.80;;;;;;;1.37;75.90;101948.31;5051315;28;20025;-79
2023/12/17 04:02:18;;;;;;;18.63;9.60;;;;;;;1.39;75.82;101957.09;5051517;28;20032;-79
2023/12/17 04:04:43;;;;;;;21.95;10.13;;;;;;;1.38;75.03;101955.31;5051662;28;19913;-77
2023/12/17 04:07:08;;;;;;;19.80;9.00;;;;;;;1.36;75.41;101959.50;5050923;28;20082;-78
2023/12/17 04:09:34;;;;;;;21.13;9.63;;;;;;;1.33;75.37;101956.72;5051025;28;20029;-80
2023/12/17 04:11:59;;;;;;;24.13;10.40;;;;;;;1.37;75.07;101962.97;5051180;28;20548;-77
2023/12/17 04:14:25;;;;;;;27.53;10.27;;;;;;;1.38;75.09;101960.50;5050525;28;20049;-79
2023/12/17 04:16:50;;;;;;;27.02;10.73;;;;;;;1.40;75.15;101948.50;5050447;28;20064;-79
2023/12/17 04:19:16;;;;;;;26.03;10.40;;;;;;;1.42;75.59;101961.56;5050565;28;20120;-80
2023/12/17 04:21:41;;;;;;;23.93;10.33;;;;;;;1.42;75.70;101944.28;5050145;28;20052;-78
2023/12/17 04:24:06;;;;;;;23.30;10.50;;;;;;;1.43;75.31;101943.50;5049832;28;20355;-79
2023/12/17 04:26:32;;;;;;;26.10;10.23;;;;;;;1.43;75.00;101945.19;5050750;28;20049;-79
2023/12/17 04:28:57;;;;;;;28.20;9.40;;;;;;;1.42;75.35;101949.50;5050724;28;20087;-78
2023/12/17 04:31:23;;;;;;;28.90;10.97;;;;;;;1.40;74.81;101951.09;5050456;28;20037;-79
2023/12/17 04:33:49;;;;;;;29.88;10.20;;;;;;;1.40;74.82;101948.50;5050600;28;20497;-78
2023/12/17 04:36:14;;;;;;;39.80;10.43;;;;;;;1.39;75.69;101941.53;5050599;28;20037;-79
2023/12/17 04:38:41;;;;;;;28.45;10.50;;;;;;;1.39;75.08;101946.72;5050772;28;20036;-79
2023/12/17 04:41:06;;;;;;;31.17;9.73;;;;;;;1.39;75.17;101946.72;5050703;28;20025;-78
2023/12/17 04:43:33;;;;;;;36.83;11.02;;;;;;;1.37;75.19;101944.81;5050588;28;20049;-79
2023/12/17 04:45:58;;;;;;;32.10;10.33;;;;;;;1.38;75.40;101944.91;5050535;28;20041;-79
2023/12/17 04:48:24;;;;;;;33.47;10.80;;;;;;;1.40;75.93;101948.50;5050377;28;20485;-78
2023/12/17 04:50:49;;;;;;;35.70;10.27;;;;;;;1.41;74.91;101949.38;5045932;28;20375;-79
2023/12/17 04:53:14;;;;;;;26.37;9.60;;;;;;;1.43;75.79;101953.88;5047021;28;20037;-79
2023/12/17 04:55:40;;;;;;;40.60;11.17;;;;;;;1.39;75.57;101962.28;5050169;28;20029;-79
2023/12/17 04:58:05;;;;;;;42.27;11.03;;;;;;;1.38;75.12;101968.28;5050059;28;20135;-79
2023/12/17 05:00:31;;;;;;;31.55;11.35;;;;;;;1.35;75.83;101968.09;5050161;28;20055;-79
2023/12/17 05:02:56;;;;;;;35.23;10.07;;;;;;;1.37;75.00;101965.56;5048893;28;20091;-79
2023/12/17 05:05:23;;;;;;;39.07;10.93;;;;;;;1.37;75.31;101963.91;5050052;28;20501;-78
2023/12/17 05:07:48;;;;;;;36.80;10.23;;;;;;;1.38;75.37;101965.69;5050190;28;20502;-79
2023/12/17 05:10:13;;;;;;;25.93;10.43;;;;;;;1.39;75.21;101972.66;5048743;28;20512;-78
2023/12/17 05:12:39;;;;;;;41.23;10.50;;;;;;;1.40;75.86;101969.28;5050225;28;20039;-79
2023/12/17 05:15:05;;;;;;;38.80;9.48;;;;;;;1.39;74.73;101970.06;5050209;28;20562;-79
2023/12/17 05:17:31;;;;;;;23.60;9.47;;;;;;;1.36;74.78;101971.56;5050301;28;20029;-79
2023/12/17 05:19:56;;;;;;;22.02;8.90;;;;;;;1.35;75.41;101970.69;5049916;28;20518;-79
2023/12/17 05:22:22;;;;;;;36.47;9.10;;;;;;;1.35;75.70;101965.50;5049959;28;20083;-79
2023/12/17 05:24:48;;;;;;;20.53;8.30;;;;;;;1.34;74.83;101963.72;5050023;28;20260;-79
2023/12/17 05:27:14;;;;;;;23.60;9.07;;;;;;;1.33;75.00;101967.13;5056309;28;20033;-79
2023/12/17 05:29:39;;;;;;;22.97;8.20;;;;;;;1.31;74.92;101973.88;5069822;28;20028;-81
2023/12/17 05:32:05;;;;;;;29.40;9.07;;;;;;;1.25;75.46;101957.94;5068287;28;20021;-78
2023/12/17 05:34:30;;;;;;;32.25;9.43;;;;;;;1.25;75.42;101953.66;5065729;28;20024;-79
2023/12/17 05:36:56;;;;;;;28.53;9.07;;;;;;;1.25;75.79;101957.94;5049984;28;20079;-80
2023/12/17 05:39:21;;;;;;;26.43;9.63;;;;;;;1.22;75.70;101952.56;5049946;28;20072;-79
2023/12/17 05:41:46;;;;;;;29.33;9.57;;;;;;;1.16;76.16;101959.97;5049655;28;20082;-78
2023/12/17 05:44:12;;;;;;;30.40;9.80;;;;;;;1.11;75.98;101963.19;5049618;28;20656;-79
2023/12/17 05:46:37;;;;;;;22.58;8.77;;;;;;;1.11;75.66;101962.28;5050002;28;20025;-79
2023/12/17 05:49:02;;;;;;;24.10;8.73;;;;;;;1.12;76.00;101972.78;5049505;28;20108;-80
2023/12/17 05:51:28;;;;;;;23.20;9.03;;;;;;;1.14;75.71;101976.34;5049668;28;20032;-79
2023/12/17 05:53:53;;;;;;;24.23;8.83;;;;;;;1.17;76.30;101974.75;5049712;28;20623;-79
2023/12/17 05:56:19;;;;;;;29.77;9.00;;;;;;;1.20;75.52;101982.72;5049552;28;20594;-79
2023/12/17 05:58:45;;;;;;;25.53;9.17;;;;;;;1.21;75.54;101980.22;5048137;28;20278;-80
2023/12/17 06:01:11;;;;;;;22.30;8.70;;;;;;;1.24;75.83;101982.09;5049905;28;20028;-80
2023/12/17 06:03:36;;;;;;;22.63;8.95;;;;;;;1.22;76.44;101978.50;5049680;28;20021;-79
2023/12/17 06:06:02;;;;;;;18.23;8.83;;;;;;;1.25;75.46;101981.28;5049026;28;20455;-79
2023/12/17 06:08:27;;;;;;;34.25;9.63;;;;;;;1.24;76.29;101984.69;5049351;28;20013;-80
2023/12/17 06:10:53;;;;;;;25.20;8.77;;;;;;;1.24;76.46;101984.69;5049432;28;20032;-79
2023/12/17 06:13:18;;;;;;;31.67;8.97;;;;;;;1.26;76.22;101985.69;5049088;28;20465;-79
2023/12/17 06:15:43;;;;;;;31.13;9.20;;;;;;;1.28;76.08;101989.25;5049284;28;20275;-80
2023/12/17 06:18:09;;;;;;;24.73;8.83;;;;;;;1.31;75.80;101989.44;5049110;28;20063;-80
2023/12/17 06:20:34;;;;;;;35.50;9.07;;;;;;;1.32;76.59;101979.97;5048138;28;20106;-78
2023/12/17 06:23:00;;;;;;;26.93;9.10;;;;;;;1.33;76.32;101977.50;5049415;28;20025;-79
2023/12/17 06:25:28;;;;;;;25.03;10.27;;;;;;;1.36;76.68;101975.09;5048823;28;20028;-80
2023/12/17 06:27:53;;;;;;;23.02;9.00;;;;;;;1.40;76.25;101987.44;5049045;28;20052;-78
2023/12/17 06:30:19;;;;;;;23.47;8.70;;;;;;;1.39;75.69;101988.25;5049072;28;20079;-79
2023/12/17 06:32:45;;;;;;;24.45;8.80;;;;;;;1.42;76.56;101991.03;5049207;28;20037;-79
2023/12/17 06:35:10;;;;;;;22.40;8.43;;;;;;;1.43;76.18;101998.00;5049189;28;20021;-79
2023/12/17 06:37:35;;;;;;;26.80;9.20;;;;;;;1.44;76.17;101998.88;5049369;28;20066;-79
2023/12/17 06:40:01;;;;;;;28.20;8.67;;;;;;;1.45;76.24;102003.31;5049527;28;20035;-79
2023/12/17 06:42:26;;;;;;;30.70;10.37;;;;;;;1.46;76.10;102009.38;5049094;28;20440;-79
2023/12/17 06:44:52;;;;;;;27.87;8.90;;;;;;;1.43;76.51;102021.38;5052238;28;20480;-78
2023/12/17 06:47:18;;;;;;;35.35;10.88;;;;;;;1.41;75.93;102025.56;5052932;28;20025;-78
2023/12/17 06:49:44;;;;;;;30.97;10.07;;;;;;;1.41;76.81;102030.78;5052923;28;20037;-80
2023/12/17 06:52:10;;;;;;;26.45;10.32;;;;;;;1.42;76.06;102021.25;5052732;28;20096;-80
2023/12/17 06:54:35;;;;;;;46.08;10.38;;;;;;;1.43;76.18;102017.88;5052955;28;20119;-79
2023/12/17 06:57:01;;;;;;;35.27;10.33;;;;;;;1.45;76.65;102023.16;5052941;28;20052;-79
2023/12/17 06:59:26;;;;;;;29.50;11.27;;;;;;;1.46;76.97;102019.75;5052937;28;20068;-80
2023/12/17 07:01:51;;;;;;;28.57;11.50;;;;;;;1.46;76.41;102009.38;5052683;28;20115;-80
2023/12/17 07:04:17;;;;;;;34.83;11.67;;;;;;;1.48;76.52;102007.78;5052887;28;20040;-78
2023/12/17 07:06:42;;;;;;;35.40;9.80;;;;;;;1.48;77.03;102010.38;5052620;28;20029;-79
2023/12/17 07:09:07;;;;;;;25.80;9.93;;;;;;;1.51;76.99;102015.75;5052564;28;20029;-80
2023/12/17 07:11:33;;;;;;;37.13;10.83;;;;;;;1.50;76.64;102016.56;5052658;28;20029;-80
2023/12/17 07:13:59;;;;;;;27.13;9.27;;;;;;;1.50;76.60;102021.75;5052249;28;20029;-79
2023/12/17 07:16:28;;;;;;;29.90;10.97;;;;;;;1.52;76.70;102022.72;5052587;28;20350;-81
2023/12/17 07:18:54;;;;;;;24.77;9.90;;;;;;;1.54;77.01;102028.91;5052284;28;20087;-80
2023/12/17 07:21:19;;;;;;;27.87;10.50;;;;;;;1.57;76.84;102023.94;5052746;28;20036;-78
2023/12/17 07:23:45;;;;;;;24.70;10.02;;;;;;;1.59;76.65;102022.31;5052036;28;20037;-78
2023/12/17 07:26:11;;;;;;;40.80;10.10;;;;;;;1.60;76.91;102029.31;5052003;28;20071;-77
2023/12/17 07:28:36;;;;;;;33.20;9.82;;;;;;;1.51;77.37;102029.63;5052291;28;20044;-80
2023/12/17 07:31:02;;;;;;;37.83;10.80;;;;;;;1.52;77.33;102033.13;5052308;28;20033;-80
2023/12/17 07:33:27;;;;;;;30.17;10.13;;;;;;;1.54;76.88;102024.63;5052128;28;20116;-80
2023/12/17 07:35:52;;;;;;;42.20;10.03;;;;;;;1.57;77.27;102023.94;5052210;28;20033;-81
2023/12/17 07:38:19;;;;;;;42.70;11.23;;;;;;;1.52;77.00;102034.03;5052313;28;20029;-79
2023/12/17 07:40:44;;;;;;;83.73;26.90;;;;;;;1.47;77.92;102030.25;5052154;28;20276;-79
2023/12/17 07:43:10;;;;;;;57.70;14.57;;;;;;;1.46;77.45;102033.66;5052144;28;20443;-78
2023/12/17 07:45:36;;;;;;;149.47;47.40;;;;;;;1.45;77.12;102033.56;5051910;28;20275;-77
2023/12/17 07:48:03;;;;;;;40.53;12.80;;;;;;;1.43;77.80;102042.13;5051907;28;20048;-78
2023/12/17 07:50:28;;;;;;;29.55;9.95;;;;;;;1.41;77.54;102043.75;5051943;28;20064;-78
2023/12/17 07:52:53;;;;;;;40.73;9.47;;;;;;;1.43;77.15;102041.22;5051972;28;20063;-78
2023/12/17 07:55:19;;;;;;;27.70;10.10;;;;;;;1.47;77.27;102042.31;5051822;28;20021;-78
2023/12/17 07:57:44;;;;;;;31.90;9.80;;;;;;;1.48;77.16;102038.94;5051333;28;20033;-78
2023/12/17 08:00:11;;;;;;;26.67;9.67;;;;;;;1.49;77.51;102045.91;5050358;28;20079;-78
2023/12/17 08:02:37;;;;;;;25.38;7.70;;;;;;;1.45;77.86;102050.03;5051573;28;20033;-80
2023/12/17 08:05:05;;;;;;;23.63;10.17;;;;;;;1.39;77.81;102044.44;5050222;28;20025;-79
2023/12/17 08:07:34;;;;;;;24.58;8.82;;;;;;;1.40;77.55;102049.75;5051546;28;20508;-77
2023/12/17 08:09:59;;;;;;;25.58;8.40;;;;;;;1.45;77.94;102043.94;5051319;28;20481;-77
2023/12/17 08:12:25;;;;;;;21.10;8.80;;;;;;;1.49;77.68;102053.69;5051278;28;20025;-77
2023/12/17 08:14:50;;;;;;;22.43;8.97;;;;;;;1.53;77.68;102047.88;5051115;28;20029;-80
2023/12/17 08:17:16;;;;;;;20.57;9.03;;;;;;;1.57;77.79;102049.91;5051438;28;20040;-77
2023/12/17 08:19:42;;;;;;;21.67;8.30;;;;;;;1.61;77.69;102050.97;5051158;28;20362;-77
2023/12/17 08:22:11;;;;;;;20.42;8.30;;;;;;;1.62;77.02;102051.06;5050978;28;20028;-77
2023/12/17 08:24:36;;;;;;;23.93;8.10;;;;;;;1.64;76.89;102052.06;5050800;28;20426;-78
2023/12/17 08:27:02;;;;;;;26.45;8.45;;;;;;;1.65;77.15;102053.84;5050819;28;20182;-79
2023/12/17 08:29:28;;;;;;;19.90;6.90;;;;;;;1.66;77.61;102045.25;5051005;28;20050;-77
2023/12/17 08:31:55;;;;;;;19.30;7.07;;;;;;;1.67;77.35;102051.34;5051308;28;20029;-77
2023/12/17 08:34:21;;;;;;;23.10;7.97;;;;;;;1.68;77.05;102059.22;5051110;28;20037;-77
2023/12/17 08:36:47;;;;;;;22.20;8.27;;;;;;;1.68;76.54;102064.44;5050997;28;20065;-78
2023/12/17 08:39:13;;;;;;;20.60;8.05;;;;;;;1.69;76.57;102071.41;5050761;28;20037;-77
2023/12/17 08:41:39;;;;;;;24.05;8.95;;;;;;;1.72;76.65;102071.59;5053282;28;20122;-77
2023/12/17 08:44:04;;;;;;;19.95;7.60;;;;;;;1.75;77.02;102075.19;5070413;28;20064;-79
2023/12/17 08:46:29;;;;;;;23.23;7.97;;;;;;;1.76;76.67;102069.19;5060128;28;20080;-79
2023/12/17 08:48:55;;;;;;;18.80;8.17;;;;;;;1.79;77.22;102065.09;5050822;28;20031;-80
2023/12/17 08:51:21;;;;;;;25.43;8.27;;;;;;;1.84;76.93;102071.44;5050788;28;20485;-79
2023/12/17 08:53:47;;;;;;;31.58;8.18;;;;;;;1.84;77.31;102080.97;5050661;28;20025;-78
2023/12/17 08:56:13;;;;;;;23.27;8.68;;;;;;;1.70;77.11;102083.59;5050584;28;20078;-78
2023/12/17 08:58:38;;;;;;;25.77;9.13;;;;;;;1.70;77.48;102096.59;5050388;28;20033;-78
2023/12/17 09:01:04;;;;;;;31.63;11.60;;;;;;;1.68;77.55;102098.19;5050700;28;20013;-77
2023/12/17 09:03:29;;;;;;;51.78;17.73;;;;;;;1.68;77.15;102090.41;5050225;28;20574;-79
2023/12/17 09:05:54;;;;;;;32.47;12.40;;;;;;;1.70;77.20;102109.56;5049535;28;20119;-79
2023/12/17 09:08:21;;;;;;;36.77;10.03;;;;;;;1.67;77.69;102116.25;5049460;28;20035;-78
2023/12/17 09:10:46;;;;;;;31.02;8.88;;;;;;;1.66;77.76;102115.38;5046596;28;20054;-78
2023/12/17 09:13:11;;;;;;;21.00;8.70;;;;;;;1.70;77.36;102109.56;5047547;28;20464;-80
2023/12/17 09:15:38;;;;;;;31.40;10.40;;;;;;;1.80;77.40;102115.31;5049400;28;20029;-78
2023/12/17 09:18:05;;;;;;;33.22;10.23;;;;;;;1.87;77.30;102104.53;5048595;28;20029;-79
2023/12/17 09:20:31;;;;;;;25.67;9.07;;;;;;;1.93;77.19;102099.69;5046815;28;20141;-78
2023/12/17 09:22:57;;;;;;;27.73;9.87;;;;;;;1.98;76.84;102106.06;5049131;28;20515;-77
2023/12/17 09:25:23;;;;;;;24.73;10.48;;;;;;;2.07;77.41;102115.25;5048003;28;20044;-78
2023/12/17 09:27:51;;;;;;;25.25;9.30;;;;;;;2.13;76.75;102120.81;5048008;28;20063;-77
2023/12/17 09:30:17;;;;;;;21.80;9.32;;;;;;;2.13;76.56;102115.59;5049251;28;20043;-78
2023/12/17 09:32:44;;;;;;;23.85;10.30;;;;;;;2.18;76.65;102114.19;5047060;28;20107;-79
2023/12/17 09:35:10;;;;;;;26.40;9.70;;;;;;;2.19;76.78;102115.97;5044538;28;20488;-78
2023/12/17 09:37:36;;;;;;;19.77;8.52;;;;;;;2.21;76.65;102116.94;5048284;28;20020;-79
2023/12/17 09:40:02;;;;;;;31.45;10.35;;;;;;;2.19;76.83;102120.28;5048962;28;20849;-78
2023/12/17 09:42:29;;;;;;;25.47;9.60;;;;;;;2.18;76.76;102119.38;5049350;28;20036;-78
2023/12/17 09:44:54;;;;;;;29.50;11.77;;;;;;;2.17;76.99;102119.25;5052341;28;20031;-78
2023/12/17 09:47:20;;;;;;;24.00;10.00;;;;;;;2.18;77.19;102108.97;5049362;28;20436;-77
2023/12/17 09:49:45;;;;;;;23.80;9.60;;;;;;;2.24;76.80;102119.72;5049313;28;20029;-78
2023/12/17 09:52:12;;;;;;;27.47;10.67;;;;;;;2.34;76.91;102130.72;5048251;28;20096;-78
2023/12/17 09:54:39;;;;;;;23.85;10.75;;;;;;;2.39;77.59;102126.66;5046688;28;20025;-80
2023/12/17 09:57:10;;;;;;;19.55;8.43;;;;;;;2.40;76.67;102136.25;5046020;28;20033;-83
2023/12/17 09:59:35;;;;;;;21.67;9.48;;;;;;;2.42;77.02;102126.84;5049958;28;20553;-87
2023/12/17 10:02:01;;;;;;;30.10;10.03;;;;;;;2.46;77.16;102121.03;5050044;28;20029;-93
2023/12/17 10:04:26;;;;;;;32.90;9.53;;;;;;;2.46;77.08;102131.41;5050769;28;20135;-83
2023/12/17 10:06:52;;;;;;;23.65;10.40;;;;;;;2.48;76.95;102135.00;5050277;28;20087;-81
2023/12/17 10:09:18;;;;;;;33.53;11.03;;;;;;;2.51;77.06;102129.97;5049607;28;20108;-84
2023/12/17 10:11:43;;;;;;;23.00;9.10;;;;;;;2.51;77.06;102135.19;5049469;28;20028;-84
2023/12/17 10:14:23;;;;;;;29.77;11.77;;;;;;;2.56;76.96;102136.38;5049440;28;20036;-83
2023/12/17 10:16:50;;;;;;;26.63;10.27;;;;;;;2.61;76.79;102127.94;5047868;28;20128;-87
2023/12/17 10:19:15;;;;;;;33.22;10.52;;;;;;;2.65;76.47;102132.50;5054354;28;20033;-92
2023/12/17 10:21:40;;;;;;;31.83;11.60;;;;;;;2.65;76.92;102133.41;5055343;28;20021;-84
2023/12/17 10:24:06;;;;;;;31.93;11.83;;;;;;;2.70;76.62;102121.56;5053716;28;20033;-83
2023/12/17 10:26:41;;;;;;;26.30;11.38;;;;;;;2.78;77.11;102122.03;5053363;28;20037;-84
2023/12/17 10:29:09;;;;;;;25.52;10.65;;;;;;;2.88;76.43;102126.03;5037715;28;20773;-84
2023/12/17 10:31:37;;;;;;;30.63;11.33;;;;;;;2.98;76.76;102117.03;5052323;28;20029;-84
2023/12/17 10:34:18;;;;;;;24.55;10.40;;;;;;;3.07;77.12;102112.38;5054048;28;20056;-82
2023/12/17 10:36:48;;;;;;;35.17;13.43;;;;;;;3.13;76.97;102107.50;5052885;28;20037;-88
2023/12/17 10:39:15;;;;;;;26.63;11.32;;;;;;;3.18;76.61;102110.38;5053040;28;20039;-89
2023/12/17 10:41:46;;;;;;;39.30;12.45;;;;;;;3.27;76.29;102099.59;5052911;28;20112;-84
2023/12/17 10:44:12;;;;;;;39.73;12.83;;;;;;;3.31;76.35;102096.34;5051857;28;20508;-82
2023/12/17 10:46:42;;;;;;;34.53;11.77;;;;;;;3.29;76.82;102091.03;5052372;28;20029;-82
2023/12/17 10:49:08;;;;;;;35.50;12.18;;;;;;;3.28;76.51;102081.44;5053303;28;20528;-82
2023/12/17 10:51:37;;;;;;;29.05;11.85;;;;;;;3.25;76.82;102089.06;5054650;28;20029;-91
2023/12/17 10:54:02;;;;;;;23.80;10.27;;;;;;;3.24;77.01;102088.97;5052568;28;20442;-83
2023/12/17 10:56:34;;;;;;;26.20;11.48;;;;;;;3.30;77.13;102081.53;5054489;28;20054;-82
2023/12/17 10:59:03;;;;;;;28.30;11.60;;;;;;;3.37;77.04;102080.13;5045038;28;20029;-85
2023/12/17 11:01:30;;;;;;;28.08;11.93;;;;;;;3.44;77.02;102072.75;5055115;28;20048;-82
2023/12/17 11:03:55;;;;;;;27.60;12.20;;;;;;;3.54;77.33;102073.25;5052735;28;20033;-83
2023/12/17 11:06:21;;;;;;;27.75;11.85;;;;;;;3.57;77.05;102063.00;5053102;28;20040;-82
2023/12/17 11:08:47;;;;;;;25.87;11.57;;;;;;;3.64;76.77;102065.13;5054317;28;20025;-85
2023/12/17 11:11:12;;;;;;;26.35;12.05;;;;;;;3.69;77.29;102063.66;5054628;28;20025;-82
2023/12/17 11:13:39;;;;;;;24.63;11.80;;;;;;;3.70;77.20;102055.00;5052381;28;20032;-86